Time;durP1;ratioP1;P1;durP2;ratioP2;P2;SDS_P1;SDS_P2;PMS_P1;PMS_P2;Temp;Humidity;BMP_temperature;BMP_pressure;BME280_temperature;BME280_humidity;BME280_pressure;Samples;Min_cycle;Max_cycle;Signal;HPM_P1;HPM_P2
2022/09/05 00:02:38;;;;;;;17.67;9.93;;;18.80;87.70;;;;;;5043023;28;20194;-77
2022/09/05 00:05:40;;;;;;;20.13;10.93;;;18.80;87.80;;;;;;5044578;28;20290;-78
2022/09/05 00:08:39;;;;;;;21.17;11.53;;;18.80;87.70;;;;;;5028001;28;20564;-77
2022/09/05 00:11:18;;;;;;;21.20;10.73;;;18.80;87.70;;;;;;5039559;28;20191;-77
2022/09/05 00:14:30;;;;;;;20.00;10.10;;;18.70;87.70;;;;;;5039164;28;20637;-76
2022/09/05 00:17:30;;;;;;;18.63;10.20;;;18.70;87.80;;;;;;5039432;28;20203;-77
2022/09/05 00:20:29;;;;;;;20.80;10.97;;;18.70;87.80;;;;;;5037473;28;20633;-76
2022/09/05 00:23:26;;;;;;;20.17;11.17;;;18.60;87.90;;;;;;5034766;28;20233;-76
2022/09/05 00:26:27;;;;;;;19.83;10.37;;;18.60;88.00;;;;;;5047943;28;20195;-76
2022/09/05 00:29:06;;;;;;;20.90;10.63;;;18.60;88.80;;;;;;5035964;28;20715;-77
2022/09/05 00:31:52;;;;;;;21.70;10.60;;;18.60;88.30;;;;;;5040276;28;20206;-76
2022/09/05 00:34:41;;;;;;;20.63;10.83;;;18.60;88.00;;;;;;5041838;28;20231;-76
2022/09/05 00:37:30;;;;;;;21.17;10.57;;;18.60;88.00;;;;;;5039726;28;20195;-77
2022/09/05 00:40:15;;;;;;;24.10;11.37;;;18.50;88.00;;;;;;5036459;28;20241;-79
2022/09/05 00:42:49;;;;;;;19.77;11.17;;;18.60;88.10;;;;;;5039254;28;21658;-76
2022/09/05 00:45:26;;;;;;;23.07;12.13;;;18.50;88.00;;;;;;5040466;28;20652;-78
2022/09/05 00:48:05;;;;;;;21.33;11.10;;;18.50;88.10;;;;;;5036118;28;20236;-78
2022/09/05 00:50:42;;;;;;;24.13;11.57;;;18.50;88.10;;;;;;5036887;28;20190;-76
2022/09/05 00:53:18;;;;;;;20.37;11.67;;;18.50;88.20;;;;;;5040820;28;20210;-78
2022/09/05 00:55:58;;;;;;;19.73;11.70;;;18.50;88.30;;;;;;5037676;28;20743;-78
2022/09/05 00:58:54;;;;;;;26.00;13.00;;;18.50;88.40;;;;;;5039601;28;20191;-79
2022/09/05 01:01:32;;;;;;;22.43;12.63;;;18.50;88.50;;;;;;5039865;28;20202;-79
2022/09/05 01:04:32;;;;;;;21.33;11.67;;;18.50;88.50;;;;;;5039652;28;20696;-79
2022/09/05 01:07:25;;;;;;;22.77;12.47;;;18.50;88.60;;;;;;5037497;28;20198;-80
2022/09/05 01:10:03;;;;;;;24.47;13.20;;;18.50;88.60;;;;;;5041748;28;20195;-79
2022/09/05 01:12:48;;;;;;;25.50;13.23;;;18.50;88.70;;;;;;5044014;28;20191;-79
2022/09/05 01:15:28;;;;;;;26.47;13.93;;;18.40;88.70;;;;;;5040624;28;20202;-78
2022/09/05 01:18:13;;;;;;;26.33;13.10;;;18.40;88.70;;;;;;5035062;28;20236;-78
2022/09/05 01:21:09;;;;;;;29.63;14.80;;;18.40;88.80;;;;;;5040044;28;20229;-78
2022/09/05 01:23:56;;;;;;;30.70;17.57;;;18.40;88.80;;;;;;5042992;28;20476;-78
2022/09/05 01:26:44;;;;;;;35.70;18.47;;;18.40;88.80;;;;;;5034182;28;20195;-78
2022/09/05 01:29:21;;;;;;;34.97;18.47;;;18.40;88.80;;;;;;5043901;28;20195;-78
2022/09/05 01:32:02;;;;;;;32.97;17.30;;;18.40;88.90;;;;;;5029002;28;20202;-78
2022/09/05 01:34:40;;;;;;;35.97;18.67;;;18.40;89.00;;;;;;5036989;28;20699;-78
2022/09/05 01:37:16;;;;;;;32.03;16.83;;;18.40;89.10;;;;;;5042444;28;20206;-78
2022/09/05 01:40:13;;;;;;;27.27;15.07;;;18.40;89.10;;;;;;5033854;28;20956;-79
2022/09/05 01:42:58;;;;;;;31.00;15.43;;;18.40;89.20;;;;;;5043916;28;20230;-78
2022/09/05 01:45:45;;;;;;;29.17;15.20;;;18.40;89.10;;;;;;5043416;28;20207;-78
2022/09/05 01:48:29;;;;;;;33.63;15.83;;;18.40;89.20;;;;;;5042491;28;20191;-77
2022/09/05 01:51:10;;;;;;;29.07;14.93;;;18.30;89.20;;;;;;5041665;28;20205;-77
2022/09/05 01:54:12;;;;;;;28.97;16.03;;;18.30;89.20;;;;;;5034099;28;20211;-77
2022/09/05 01:57:07;;;;;;;24.97;13.40;;;18.30;89.20;;;;;;5038493;28;20252;-78
2022/09/05 01:59:45;;;;;;;22.17;13.53;;;18.30;89.30;;;;;;5030950;28;20183;-78
2022/09/05 02:02:26;;;;;;;25.20;13.50;;;18.30;89.20;;;;;;5043917;28;20191;-78
2022/09/05 02:05:21;;;;;;;28.70;13.47;;;18.30;89.30;;;;;;5028536;28;20196;-79
2022/09/05 02:08:39;;;;;;;27.57;13.37;;;18.30;90.00;;;;;;5038795;28;20894;-78
2022/09/05 02:11:09;;;;;;;23.13;13.03;;;18.30;89.40;;;;;;5031705;28;20199;-77
2022/09/05 02:13:56;;;;;;;22.50;12.70;;;18.20;89.30;;;;;;5043389;28;20257;-77
2022/09/05 02:16:31;;;;;;;25.10;13.47;;;18.20;89.40;;;;;;5040960;28;20195;-77
2022/09/05 02:19:06;;;;;;;27.13;12.30;;;18.20;89.40;;;;;;5043078;28;20843;-78
2022/09/05 02:21:42;;;;;;;24.17;12.80;;;18.20;89.40;;;;;;5039817;28;20198;-77
2022/09/05 02:24:33;;;;;;;22.63;12.17;;;18.20;89.50;;;;;;5052227;28;20206;-78
2022/09/05 02:27:23;;;;;;;22.70;11.73;;;18.20;89.50;;;;;;5042114;28;20221;-78
2022/09/05 02:30:16;;;;;;;21.07;11.00;;;18.20;89.60;;;;;;5038406;28;20204;-77
2022/09/05 02:33:09;;;;;;;21.03;11.87;;;18.20;89.60;;;;;;5042947;28;20849;-77
2022/09/05 02:35:47;;;;;;;22.97;11.40;;;18.20;89.70;;;;;;5032922;28;20202;-77
2022/09/05 02:38:21;;;;;;;23.97;12.13;;;18.20;89.70;;;;;;5040091;28;20238;-77
2022/09/05 02:41:22;;;;;;;18.70;10.67;;;18.10;89.60;;;;;;5035825;28;20898;-77
2022/09/05 02:44:17;;;;;;;22.73;11.63;;;18.10;89.70;;;;;;5038192;28;20244;-76
2022/09/05 02:47:12;;;;;;;20.20;10.60;;;18.10;89.70;;;;;;5036063;28;20191;-76
2022/09/05 02:49:54;;;;;;;20.17;10.97;;;18.10;89.70;;;;;;5043688;28;20198;-76
2022/09/05 02:52:46;;;;;;;19.53;10.80;;;18.10;89.70;;;;;;5041243;28;20194;-76
2022/09/05 02:55:54;;;;;;;21.93;10.80;;;18.10;89.60;;;;;;5040572;28;20269;-76
2022/09/05 02:58:54;;;;;;;21.20;10.73;;;18.10;89.60;;;;;;5042584;28;20199;-77
2022/09/05 03:01:56;;;;;;;19.73;10.90;;;18.10;89.60;;;;;;5040989;28;20203;-77
2022/09/05 03:04:34;;;;;;;20.33;10.37;;;18.10;89.60;;;;;;5040434;28;20833;-77
2022/09/05 03:07:16;;;;;;;20.67;10.40;;;18.10;89.60;;;;;;5041452;28;20195;-77
2022/09/05 03:10:09;;;;;;;21.20;10.33;;;18.00;89.50;;;;;;5026182;28;20195;-77
2022/09/05 03:13:09;;;;;;;22.92;12.55;;;18.00;89.60;;;;;;5032868;28;20426;-77
2022/09/05 03:16:13;;;;;;;22.47;12.20;;;18.00;90.00;;;;;;5040307;28;20862;-77
2022/09/05 03:19:19;;;;;;;24.47;10.90;;;18.00;90.00;;;;;;5042213;28;20505;-77
2022/09/05 03:22:23;;;;;;;22.43;11.93;;;18.00;90.00;;;;;;5041049;28;20210;-77
2022/09/05 03:25:23;;;;;;;20.90;10.97;;;18.00;90.00;;;;;;5035526;28;20203;-77
2022/09/05 03:28:51;;;;;;;20.60;11.27;;;18.00;90.00;;;;;;5036426;28;20207;-77
2022/09/05 03:32:03;;;;;;;22.50;11.07;;;17.90;90.00;;;;;;5034466;28;20207;-77
2022/09/05 03:35:02;;;;;;;22.93;11.70;;;17.90;90.00;;;;;;5041312;28;20585;-76
2022/09/05 03:38:20;;;;;;;24.80;11.50;;;17.90;90.40;;;;;;5038527;28;20190;-77
2022/09/05 03:41:03;;;;;;;19.33;10.40;;;17.90;90.00;;;;;;4999825;28;20203;-76
2022/09/05 03:44:04;;;;;;;20.40;10.57;;;17.90;90.00;;;;;;5029247;28;20195;-76
2022/09/05 03:46:54;;;;;;;19.50;10.43;;;17.90;90.00;;;;;;5037655;28;20667;-76
2022/09/05 03:49:55;;;;;;;20.17;10.37;;;17.90;90.00;;;;;;5036341;28;20187;-75
2022/09/05 03:53:02;;;;;;;19.20;9.93;;;17.90;90.00;;;;;;5018306;28;20206;-76
2022/09/05 03:56:05;;;;;;;21.60;10.97;;;17.90;90.00;;;;;;5038863;28;20214;-77
2022/09/05 03:59:19;;;;;;;20.90;10.60;;;17.90;90.00;;;;;;5042668;28;20210;-76
2022/09/05 04:01:50;;;;;;;19.43;10.70;;;17.80;90.00;;;;;;5039739;28;20203;-76
2022/09/05 04:04:47;;;;;;;20.50;10.53;;;17.80;90.00;;;;;;5041397;28;20207;-77
2022/09/05 04:07:42;;;;;;;22.73;11.00;;;17.80;90.00;;;;;;5041546;28;20225;-76
2022/09/05 04:10:36;;;;;;;17.57;10.07;;;17.90;90.10;;;;;;5037801;28;20219;-76
2022/09/05 04:13:09;;;;;;;19.70;10.70;;;17.90;90.10;;;;;;5034117;28;20226;-78
2022/09/05 04:15:42;;;;;;;24.20;11.57;;;17.90;90.20;;;;;;5040454;28;20211;-76
2022/09/05 04:18:27;;;;;;;20.50;11.40;;;17.90;90.30;;;;;;5037179;28;20202;-77
2022/09/05 04:21:05;;;;;;;22.33;10.87;;;17.90;90.40;;;;;;5031514;28;20200;-75
2022/09/05 04:23:41;;;;;;;22.97;10.93;;;17.90;90.40;;;;;;5034969;28;20206;-77
2022/09/05 04:26:24;;;;;;;18.30;9.23;;;18.00;90.50;;;;;;5039377;28;20194;-77
2022/09/05 04:29:13;;;;;;;20.33;10.83;;;18.00;90.60;;;;;;5033825;28;20203;-77
2022/09/05 04:31:52;;;;;;;17.83;9.50;;;17.90;90.60;;;;;;5036027;28;20195;-77
2022/09/05 04:34:56;;;;;;;19.13;10.20;;;18.00;90.70;;;;;;5033813;28;20218;-78
2022/09/05 04:37:43;;;;;;;19.67;9.83;;;18.10;90.80;;;;;;5033253;28;21215;-76
2022/09/05 04:40:39;;;;;;;16.47;8.70;;;18.10;90.80;;;;;;5040253;28;20221;-76
2022/09/05 04:43:13;;;;;;;16.30;9.53;;;18.20;90.90;;;;;;5035576;28;20187;-77
2022/09/05 04:45:48;;;;;;;18.70;9.93;;;18.20;90.90;;;;;;5036184;28;20191;-75
2022/09/05 04:48:22;;;;;;;16.63;9.37;;;18.30;91.00;;;;;;5026186;28;20253;-75
2022/09/05 04:51:05;;;;;;;15.77;8.63;;;18.30;91.00;;;;;;5038461;28;20297;-75
2022/09/05 04:53:50;;;;;;;14.87;8.17;;;18.40;91.20;;;;;;5035835;28;20941;-76
2022/09/05 04:56:25;;;;;;;16.40;8.33;;;18.40;91.50;;;;;;5034848;28;20198;-76
2022/09/05 04:58:57;;;;;;;13.80;8.03;;;18.50;91.50;;;;;;5040167;28;20195;-77
2022/09/05 05:01:53;;;;;;;26.13;15.87;;;18.50;91.50;;;;;;5034391;28;20198;-77
2022/09/05 05:04:42;;;;;;;20.00;11.73;;;18.60;91.50;;;;;;5036876;28;20248;-78
2022/09/05 05:07:40;;;;;;;19.37;9.07;;;18.70;91.60;;;;;;5042133;28;20257;-77
2022/09/05 05:10:16;;;;;;;18.43;8.27;;;18.70;91.60;;;;;;5031804;28;20210;-77
2022/09/05 05:13:10;;;;;;;16.13;7.93;;;18.70;91.50;;;;;;5038467;28;20202;-77
2022/09/05 05:16:04;;;;;;;14.90;7.80;;;18.80;91.50;;;;;;5031623;28;20235;-77
2022/09/05 05:19:00;;;;;;;13.47;8.27;;;18.80;91.50;;;;;;5036816;28;20245;-78
2022/09/05 05:21:49;;;;;;;18.37;8.40;;;18.90;91.50;;;;;;5038473;28;20861;-78
2022/09/05 05:24:20;;;;;;;15.73;9.07;;;18.90;91.50;;;;;;5038754;28;20196;-77
2022/09/05 05:26:55;;;;;;;16.30;8.07;;;18.90;91.40;;;;;;5037393;28;20874;-78
2022/09/05 05:29:32;;;;;;;15.70;7.80;;;19.00;91.40;;;;;;5038052;28;20197;-78
2022/09/05 05:32:06;;;;;;;19.40;10.03;;;19.00;91.30;;;;;;5041435;28;20187;-79
2022/09/05 05:34:42;;;;;;;20.27;10.47;;;19.10;91.30;;;;;;5041263;28;20206;-77
2022/09/05 05:37:18;;;;;;;19.37;10.30;;;19.10;91.30;;;;;;5037801;28;20198;-77
2022/09/05 05:39:51;;;;;;;15.43;9.20;;;19.10;91.30;;;;;;5041194;28;20844;-78
2022/09/05 05:42:23;;;;;;;15.13;8.80;;;19.20;91.30;;;;;;5039972;28;20718;-78
2022/09/05 05:44:54;;;;;;;15.33;7.90;;;19.20;91.20;;;;;;5042803;28;20902;-77
2022/09/05 05:47:26;;;;;;;13.67;8.23;;;19.30;91.20;;;;;;5038096;28;20206;-77
2022/09/05 05:50:09;;;;;;;16.30;7.63;;;19.30;91.20;;;;;;5036531;28;20286;-76
2022/09/05 05:52:59;;;;;;;17.23;8.07;;;19.40;91.20;;;;;;5029967;28;20853;-75
2022/09/05 05:56:04;;;;;;;15.93;8.00;;;19.40;91.20;;;;;;5017371;28;20207;-76
2022/09/05 05:58:54;;;;;;;12.97;7.80;;;19.50;91.10;;;;;;5034858;28;20195;-76
2022/09/05 06:01:56;;;;;;;13.93;7.47;;;19.50;91.10;;;;;;5041530;28;20282;-76
2022/09/05 06:04:58;;;;;;;13.60;7.40;;;19.50;91.00;;;;;;5041910;28;20676;-76
2022/09/05 06:07:43;;;;;;;13.03;7.63;;;19.60;91.00;;;;;;5032818;28;20229;-76
2022/09/05 06:11:03;;;;;;;13.63;8.00;;;19.70;90.90;;;;;;5035228;28;20198;-76
2022/09/05 06:14:21;;;;;;;13.37;7.60;;;19.70;90.90;;;;;;5034896;28;20206;-77
2022/09/05 06:17:36;;;;;;;12.93;8.03;;;19.80;90.90;;;;;;5046588;28;20211;-76
2022/09/05 06:20:52;;;;;;;14.17;7.67;;;19.90;90.80;;;;;;5042314;28;20656;-76
2022/09/05 06:24:23;;;;;;;15.88;8.10;;;19.90;90.70;;;;;;5041755;28;20475;-76
2022/09/05 06:27:26;;;;;;;15.43;7.45;;;20.10;90.70;;;;;;5042891;28;20195;-78
2022/09/05 06:30:12;;;;;;;15.05;7.95;;;20.10;90.70;;;;;;5023480;28;20593;-77
2022/09/05 06:33:05;;;;;;;15.35;7.13;;;20.20;90.60;;;;;;5038676;28;20215;-77
2022/09/05 06:35:46;;;;;;;14.15;7.43;;;20.20;90.60;;;;;;5039264;28;20229;-76
2022/09/05 06:38:36;;;;;;;13.50;7.77;;;20.30;90.60;;;;;;5039917;28;20742;-77
2022/09/05 06:41:21;;;;;;;20.00;7.50;;;20.40;90.50;;;;;;5043438;28;20194;-77
2022/09/05 06:44:14;;;;;;;14.50;7.30;;;20.40;90.40;;;;;;5039232;28;20195;-76
2022/09/05 06:46:43;;;;;;;15.48;7.15;;;20.50;90.30;;;;;;5048411;28;20194;-76
2022/09/05 06:49:50;;;;;;;13.82;6.47;;;20.60;90.30;;;;;;5039317;28;20195;-79
2022/09/05 06:53:06;;;;;;;10.13;5.82;;;20.60;90.20;;;;;;5029335;28;20200;-77
2022/09/05 06:56:02;;;;;;;10.57;5.40;;;20.70;90.10;;;;;;5028849;28;20221;-77
2022/09/05 06:59:10;;;;;;;10.65;5.32;;;20.80;90.00;;;;;;5039259;28;20210;-76
2022/09/05 07:01:46;;;;;;;10.55;5.88;;;20.90;89.60;;;;;;5039552;28;20853;-78
2022/09/05 07:04:34;;;;;;;9.27;4.95;;;20.90;89.40;;;;;;5040695;28;20215;-79
2022/09/05 07:07:26;;;;;;;9.93;5.88;;;21.00;89.30;;;;;;5042998;28;20752;-79
2022/09/05 07:09:59;;;;;;;8.82;4.93;;;21.10;89.20;;;;;;5029047;28;20195;-80
2022/09/05 07:12:30;;;;;;;9.38;5.00;;;21.10;89.10;;;;;;5031851;28;20265;-81
2022/09/05 07:15:11;;;;;;;10.55;4.65;;;21.20;88.90;;;;;;5038944;28;20203;-79
2022/09/05 07:17:55;;;;;;;11.82;4.40;;;21.20;88.70;;;;;;5035756;28;20208;-78
2022/09/05 07:20:47;;;;;;;8.52;4.72;;;21.30;88.50;;;;;;5034193;28;20202;-79
2022/09/05 07:23:47;;;;;;;7.30;4.47;;;21.40;88.30;;;;;;5034232;28;20707;-78
2022/09/05 07:26:40;;;;;;;6.72;3.78;;;21.50;88.00;;;;;;5035077;28;20191;-80
2022/09/05 07:29:29;;;;;;;6.30;3.85;;;21.60;87.70;;;;;;5036360;28;20222;-78
2022/09/05 07:32:01;;;;;;;5.40;3.17;;;21.70;87.40;;;;;;5044364;28;20727;-80
2022/09/05 07:34:31;;;;;;;5.65;2.67;;;21.70;86.10;;;;;;5034518;28;20302;-77
2022/09/05 07:37:06;;;;;;;9.52;3.22;;;21.70;85.10;;;;;;5041702;28;20223;-77
2022/09/05 07:39:46;;;;;;;4.82;2.65;;;21.80;83.90;;;;;;5044179;28;20219;-78
2022/09/05 07:42:21;;;;;;;6.38;3.10;;;21.90;83.90;;;;;;5033903;28;20248;-77
2022/09/05 07:44:55;;;;;;;5.15;2.83;;;21.90;83.70;;;;;;5037059;28;20282;-79
2022/09/05 07:47:30;;;;;;;6.47;3.00;;;22.00;83.40;;;;;;5041394;28;20277;-77
2022/09/05 07:50:05;;;;;;;6.97;3.20;;;22.00;82.60;;;;;;5039777;28;20194;-78
2022/09/05 07:52:56;;;;;;;6.22;2.97;;;22.10;82.40;;;;;;5032642;28;20190;-78
2022/09/05 07:55:49;;;;;;;6.03;2.63;;;22.20;82.00;;;;;;5035769;28;20202;-79
2022/09/05 07:58:42;;;;;;;4.75;2.60;;;22.20;81.70;;;;;;5036181;28;20210;-80
2022/09/05 08:01:13;;;;;;;7.30;2.40;;;22.30;81.20;;;;;;5034110;28;20195;-79
2022/09/05 08:03:44;;;;;;;3.33;1.98;;;22.30;80.90;;;;;;5039703;28;20203;-80
2022/09/05 08:06:18;;;;;;;3.78;2.53;;;22.40;80.50;;;;;;5036948;28;20197;-79
2022/09/05 08:09:09;;;;;;;6.70;2.58;;;22.40;79.80;;;;;;5041067;28;20199;-77
2022/09/05 08:12:10;;;;;;;5.25;2.65;;;22.50;80.00;;;;;;5036884;28;20768;-77
2022/09/05 08:14:56;;;;;;;4.10;2.28;;;22.60;79.20;;;;;;5029724;28;20196;-75
2022/09/05 08:17:26;;;;;;;3.55;1.90;;;22.60;78.80;;;;;;5040526;28;20321;-78
2022/09/05 08:20:20;;;;;;;4.00;2.20;;;22.70;78.50;;;;;;5038083;28;20191;-77
2022/09/05 08:22:56;;;;;;;3.38;2.10;;;22.70;76.70;;;;;;5033508;28;20187;-78
2022/09/05 08:25:31;;;;;;;4.78;2.28;;;22.80;76.60;;;;;;5037202;28;20219;-78
2022/09/05 08:28:25;;;;;;;2.97;2.08;;;22.80;76.40;;;;;;5036872;28;20326;-78
2022/09/05 08:31:13;;;;;;;2.78;1.88;;;22.90;76.60;;;;;;5036204;28;20246;-79
2022/09/05 08:33:43;;;;;;;3.50;2.03;;;22.90;76.30;;;;;;5038881;28;20259;-80
2022/09/05 08:36:25;;;;;;;3.58;2.15;;;23.00;74.30;;;;;;5037463;28;20217;-76
2022/09/05 08:38:54;;;;;;;4.80;2.25;;;23.00;74.50;;;;;;5035836;28;20222;-77
2022/09/05 08:41:27;;;;;;;6.78;2.15;;;23.10;75.00;;;;;;5034387;28;20880;-78
2022/09/05 08:44:21;;;;;;;4.53;2.10;;;23.20;74.90;;;;;;5038035;28;20202;-79
2022/09/05 08:47:24;;;;;;;3.13;1.85;;;23.20;74.60;;;;;;5041129;28;20202;-78
2022/09/05 08:50:31;;;;;;;5.50;2.10;;;23.30;74.90;;;;;;5032208;28;20222;-79
2022/09/05 08:53:14;;;;;;;4.00;1.92;;;23.30;74.30;;;;;;4989764;28;20202;-78
2022/09/05 08:56:10;;;;;;;2.35;1.65;;;23.40;73.20;;;;;;5035108;28;20209;-79
2022/09/05 08:58:59;;;;;;;2.42;1.70;;;23.40;71.20;;;;;;5034767;28;20195;-80
2022/09/05 09:02:04;;;;;;;3.15;1.80;;;23.50;70.70;;;;;;5030703;28;20279;-80
2022/09/05 09:05:06;;;;;;;6.30;1.80;;;23.50;70.80;;;;;;5040177;28;20234;-77
2022/09/05 09:07:45;;;;;;;3.60;1.67;;;23.60;71.20;;;;;;5026453;28;20214;-80
2022/09/05 09:10:34;;;;;;;2.83;1.60;;;23.60;70.30;;;;;;5032372;28;20199;-80
2022/09/05 09:13:32;;;;;;;3.03;1.67;;;23.70;68.40;;;;;;5038000;28;20719;-79
2022/09/05 09:16:05;;;;;;;4.95;1.90;;;23.80;68.10;;;;;;5017399;28;20200;-78
2022/09/05 09:18:45;;;;;;;3.78;1.80;;;23.90;68.90;;;;;;5038660;28;20215;-79
2022/09/05 09:21:25;;;;;;;3.78;1.85;;;23.90;69.20;;;;;;5038875;28;20199;-80
2022/09/05 09:24:06;;;;;;;8.55;1.77;;;24.00;69.50;;;;;;5043790;28;20625;-80
2022/09/05 09:26:47;;;;;;;3.17;1.80;;;24.00;69.00;;;;;;5037470;28;20234;-82
2022/09/05 09:29:18;;;;;;;3.40;1.58;;;24.10;68.90;;;;;;5041287;28;20195;-81
2022/09/05 09:31:59;;;;;;;4.30;2.20;;;24.20;69.20;;;;;;5041184;28;20215;-83
2022/09/05 09:34:53;;;;;;;3.67;2.05;;;24.20;68.20;;;;;;5037321;28;20206;-80
2022/09/05 09:38:07;;;;;;;3.78;2.15;;;24.30;68.10;;;;;;5037670;28;20219;-81
2022/09/05 09:41:00;;;;;;;3.88;2.40;;;24.20;68.00;;;;;;5019199;28;20258;-82
2022/09/05 09:43:49;;;;;;;3.53;1.83;;;24.20;68.00;;;;;;5024343;28;20200;-81
2022/09/05 09:46:34;;;;;;;4.35;2.25;;;24.30;68.30;;;;;;5021894;28;20303;-76
2022/09/05 09:49:31;;;;;;;5.72;2.15;;;24.30;67.30;;;;;;5018810;28;20231;-84
2022/09/05 09:52:44;;;;;;;4.53;2.03;;;24.30;67.00;;;;;;5020402;28;20203;-81
2022/09/05 09:55:54;;;;;;;3.75;1.75;;;24.40;67.70;;;;;;5022226;28;20200;-82
2022/09/05 09:58:45;;;;;;;3.65;2.42;;;24.50;67.70;;;;;;4996004;28;20224;-81
2022/09/05 10:01:27;;;;;;;3.78;2.28;;;24.50;67.50;;;;;;5020013;28;20210;-81
2022/09/05 10:04:44;;;;;;;5.15;2.13;;;24.50;67.30;;;;;;5025699;28;20204;-82
2022/09/05 10:07:57;;;;;;;3.65;1.80;;;24.50;67.40;;;;;;5011528;28;20321;-81
2022/09/05 10:11:11;;;;;;;4.10;2.30;;;24.50;67.50;;;;;;5022309;28;20204;-81
2022/09/05 10:14:28;;;;;;;3.55;1.90;;;24.50;66.40;;;;;;5022626;28;20199;-82
2022/09/05 10:17:46;;;;;;;3.05;1.85;;;24.60;66.50;;;;;;5021419;28;20290;-81
2022/09/05 10:20:36;;;;;;;4.00;1.60;;;24.70;67.30;;;;;;4989287;28;20203;-80
2022/09/05 10:23:39;;;;;;;2.63;1.67;;;24.80;66.90;;;;;;5018003;28;20198;-84
2022/09/05 10:27:04;;;;;;;4.90;1.85;;;24.80;66.70;;;;;;5014479;28;20257;-83
2022/09/05 10:30:05;;;;;;;3.28;1.92;;;24.90;66.90;;;;;;5020236;28;20192;-79
2022/09/05 10:32:52;;;;;;;5.32;1.90;;;25.00;66.10;;;;;;5013573;28;20195;-79
2022/09/05 10:35:43;;;;;;;3.65;1.73;;;25.00;66.10;;;;;;5024109;28;20208;-81
2022/09/05 10:38:20;;;;;;;4.13;2.22;;;25.10;66.30;;;;;;5023361;28;20719;-81
2022/09/05 10:40:50;;;;;;;3.72;2.17;;;25.10;65.80;;;;;;5060613;28;20190;-80
2022/09/05 10:43:49;;;;;;;2.78;1.60;;;25.20;65.10;;;;;;5061248;28;20633;-80
2022/09/05 10:46:29;;;;;;;2.53;1.67;;;25.20;65.50;;;;;;5061953;28;20273;-84
2022/09/05 10:49:23;;;;;;;5.13;1.95;;;25.30;65.40;;;;;;5064442;28;20198;-82
2022/09/05 10:52:02;;;;;;;2.80;1.95;;;25.40;65.40;;;;;;5059072;28;20202;-82
2022/09/05 10:55:06;;;;;;;2.92;1.75;;;25.50;65.00;;;;;;5066857;28;20748;-82
2022/09/05 10:57:55;;;;;;;3.83;1.75;;;25.40;64.30;;;;;;5063599;28;20218;-83
2022/09/05 11:00:50;;;;;;;2.50;1.38;;;25.40;64.10;;;;;;5059702;28;21373;-83
2022/09/05 11:03:49;;;;;;;5.13;1.45;;;25.40;64.60;;;;;;5051661;28;20863;-82
2022/09/05 11:06:21;;;;;;;4.28;1.55;;;25.50;64.20;;;;;;5059997;28;20194;-82
2022/09/05 11:09:06;;;;;;;1.90;1.20;;;25.50;63.70;;;;;;5061794;28;20894;-80
2022/09/05 11:11:44;;;;;;;3.05;1.67;;;25.60;64.00;;;;;;5050966;28;20203;-82
2022/09/05 11:14:33;;;;;;;4.03;1.80;;;25.60;63.90;;;;;;5052904;28;20217;-81
2022/09/05 11:17:14;;;;;;;4.50;1.48;;;25.60;63.10;;;;;;5057068;28;20904;-80
2022/09/05 11:19:49;;;;;;;3.22;1.58;;;25.70;63.60;;;;;;5054477;28;20205;-82
2022/09/05 11:22:17;;;;;;;1.80;1.33;;;25.80;63.80;;;;;;5053812;28;20186;-80
2022/09/05 11:24:55;;;;;;;2.65;1.50;;;25.80;63.80;;;;;;5058216;28;20622;-80
2022/09/05 11:27:30;;;;;;;3.03;1.58;;;25.80;63.70;;;;;;5063030;28;20198;-82
2022/09/05 11:30:05;;;;;;;3.45;1.90;;;25.80;63.30;;;;;;5062767;28;20194;-82
2022/09/05 11:33:06;;;;;;;3.42;1.70;;;25.80;63.10;;;;;;5058677;28;20201;-82
2022/09/05 11:35:59;;;;;;;2.58;1.30;;;25.80;63.00;;;;;;5037970;28;20624;-81
2022/09/05 11:39:13;;;;;;;3.17;1.50;;;25.80;63.30;;;;;;5061384;28;21049;-81
2022/09/05 11:42:28;;;;;;;5.63;1.80;;;25.80;63.00;;;;;;5058611;28;20644;-83
2022/09/05 11:45:15;;;;;;;3.78;1.70;;;25.80;62.80;;;;;;5062864;28;20198;-82
2022/09/05 11:48:09;;;;;;;4.88;1.65;;;25.90;62.20;;;;;;5054281;28;20731;-81
2022/09/05 11:51:11;;;;;;;3.20;1.55;;;25.90;62.30;;;;;;5059286;28;20199;-81
2022/09/05 11:54:20;;;;;;;2.42;1.30;;;26.00;62.40;;;;;;5056179;28;20190;-82
2022/09/05 11:57:08;;;;;;;2.78;1.42;;;26.00;62.50;;;;;;5057543;28;20286;-82
2022/09/05 12:00:10;;;;;;;2.85;1.45;;;26.10;62.70;;;;;;5062556;28;20218;-83
2022/09/05 12:03:48;;;;;;;6.40;1.65;;;26.10;62.80;;;;;;5054470;28;20240;-81
2022/09/05 12:06:55;;;;;;;3.53;1.95;;;26.20;62.90;;;;;;4975619;28;20201;-81
2022/09/05 12:09:37;;;;;;;4.97;1.58;;;26.30;62.90;;;;;;4962362;28;20200;-83
2022/09/05 12:12:25;;;;;;;2.58;1.45;;;26.40;62.80;;;;;;5042657;28;20205;-81
2022/09/05 12:15:33;;;;;;;2.50;1.55;;;26.40;62.50;;;;;;5054018;28;20263;-85
2022/09/05 12:18:15;;;;;;;2.92;1.45;;;26.40;61.30;;;;;;5060567;28;20597;-83
2022/09/05 12:20:56;;;;;;;2.75;1.60;;;26.40;61.10;;;;;;5062469;28;20199;-81
2022/09/05 12:23:35;;;;;;;3.15;1.45;;;26.40;61.10;;;;;;5063698;28;20285;-81
2022/09/05 12:26:32;;;;;;;5.78;1.65;;;26.30;61.10;;;;;;5056634;28;20198;-83
2022/09/05 12:29:24;;;;;;;2.67;1.35;;;26.40;60.50;;;;;;5062612;28;20206;-81
2022/09/05 12:32:07;;;;;;;5.35;1.67;;;26.40;61.10;;;;;;5059034;28;20490;-82
2022/09/05 12:34:57;;;;;;;2.55;1.40;;;26.40;60.70;;;;;;5058533;28;20198;-83
2022/09/05 12:37:53;;;;;;;2.63;1.45;;;26.50;61.00;;;;;;5063091;28;20976;-81
2022/09/05 12:40:50;;;;;;;3.10;1.55;;;26.60;61.20;;;;;;5051106;28;20590;-83
2022/09/05 12:43:46;;;;;;;5.10;1.67;;;26.60;61.20;;;;;;5056657;28;20547;-81
2022/09/05 12:46:49;;;;;;;2.03;1.38;;;26.50;61.10;;;;;;5068166;28;20217;-80
2022/09/05 12:49:28;;;;;;;4.40;1.30;;;26.60;61.20;;;;;;5064910;28;20197;-79
2022/09/05 12:52:06;;;;;;;2.65;1.20;;;26.50;61.00;;;;;;5052941;28;20205;-81
2022/09/05 12:54:45;;;;;;;2.83;1.40;;;26.50;60.50;;;;;;5054584;28;20193;-79
2022/09/05 12:57:26;;;;;;;2.38;1.30;;;26.50;60.60;;;;;;5056093;28;20248;-81
2022/09/05 13:00:20;;;;;;;2.58;1.40;;;26.40;60.60;;;;;;5053124;28;20217;-83
2022/09/05 13:03:17;;;;;;;2.63;1.23;;;26.40;60.70;;;;;;5054280;28;20703;-81
2022/09/05 13:06:04;;;;;;;1.75;1.25;;;26.40;60.30;;;;;;5058712;28;20251;-81
2022/09/05 13:08:46;;;;;;;3.47;1.40;;;26.40;60.50;;;;;;5064323;28;20462;-81
2022/09/05 13:11:30;;;;;;;2.05;1.40;;;26.40;60.40;;;;;;5062242;28;20198;-84
2022/09/05 13:14:23;;;;;;;6.07;1.70;;;26.30;60.30;;;;;;5066235;28;20245;-83
2022/09/05 13:17:14;;;;;;;4.30;1.45;;;26.30;60.50;;;;;;5067698;28;20209;-81
2022/09/05 13:19:51;;;;;;;4.72;1.40;;;26.30;60.20;;;;;;5062414;28;20209;-82
2022/09/05 13:22:23;;;;;;;2.70;1.58;;;26.20;59.80;;;;;;5008158;28;20201;-83
2022/09/05 13:25:07;;;;;;;3.55;1.60;;;26.20;60.10;;;;;;5060540;28;20203;-82
2022/09/05 13:27:45;;;;;;;1.83;1.10;;;26.20;60.50;;;;;;5064466;28;20209;-82
2022/09/05 13:30:16;;;;;;;4.70;1.40;;;26.20;60.70;;;;;;5064749;28;20798;-82
2022/09/05 13:33:14;;;;;;;2.03;1.13;;;26.20;60.40;;;;;;5062617;28;20205;-81
2022/09/05 13:36:07;;;;;;;4.05;1.33;;;26.20;60.40;;;;;;5057377;28;20832;-81
2022/09/05 13:39:02;;;;;;;3.53;1.55;;;26.30;60.50;;;;;;5066422;28;20731;-81
2022/09/05 13:41:36;;;;;;;1.98;1.33;;;26.30;60.80;;;;;;5066205;28;20233;-81
2022/09/05 13:44:09;;;;;;;3.88;1.85;;;26.40;60.80;;;;;;5064338;28;20194;-82
2022/09/05 13:46:58;;;;;;;5.40;1.35;;;26.50;60.80;;;;;;5066362;28;20715;-82
2022/09/05 13:49:31;;;;;;;3.90;1.30;;;26.70;60.50;;;;;;5064996;28;20190;-82
2022/09/05 13:52:24;;;;;;;2.88;1.48;;;26.80;60.50;;;;;;5058916;28;20205;-82
2022/09/05 13:55:04;;;;;;;2.30;1.33;;;27.10;59.50;;;;;;5058562;28;20265;-81
2022/09/05 13:57:38;;;;;;;2.50;1.38;;;27.10;59.50;;;;;;5063401;28;20194;-82
2022/09/05 14:01:03;;;;;;;2.65;1.52;;;27.00;59.50;;;;;;5063307;28;20223;-79
2022/09/05 14:03:59;;;;;;;2.40;1.40;;;27.10;58.80;;;;;;4980205;28;20232;-81
2022/09/05 14:07:08;;;;;;;4.20;1.40;;;27.20;58.50;;;;;;4983782;28;20224;-83
2022/09/05 14:10:44;;;;;;;2.83;1.35;;;27.50;58.60;;;;;;5061423;28;20186;-82
2022/09/05 14:13:16;;;;;;;4.47;1.75;;;27.50;58.50;;;;;;5060920;28;20219;-78
2022/09/05 14:15:52;;;;;;;2.80;1.60;;;27.30;58.30;;;;;;5024019;28;20203;-80
2022/09/05 14:18:24;;;;;;;4.65;1.50;;;27.20;58.50;;;;;;5064531;28;20194;-80
2022/09/05 14:21:15;;;;;;;2.70;1.27;;;27.10;58.80;;;;;;5059914;28;20248;-81
2022/09/05 14:23:53;;;;;;;2.30;1.70;;;27.10;59.00;;;;;;5060134;28;20684;-80
2022/09/05 14:26:28;;;;;;;4.82;1.70;;;27.00;59.00;;;;;;5061600;28;20224;-81
2022/09/05 14:29:13;;;;;;;2.55;1.60;;;26.90;59.00;;;;;;5065846;28;20201;-82
2022/09/05 14:32:00;;;;;;;2.70;1.50;;;26.80;58.80;;;;;;5065113;28;20244;-82